sensor_id;sensor_type;location;lat;lon;timestamp;P1;durP1;ratioP1;P2;durP2;ratioP2
36441;SDS011;73131;50.820;16.274;2023-11-22T00:00:37;34.35;;;24.80;;
36441;SDS011;73131;50.820;16.274;2023-11-22T00:03:23;35.80;;;24.42;;
36441;SDS011;73131;50.820;16.274;2023-11-22T00:05:50;33.42;;;24.55;;
36441;SDS011;73131;50.820;16.274;2023-11-22T00:08:16;34.45;;;26.23;;
36441;SDS011;73131;50.820;16.274;2023-11-22T00:10:46;33.72;;;25.45;;
36441;SDS011;73131;50.820;16.274;2023-11-22T00:13:11;35.42;;;25.33;;
36441;SDS011;73131;50.820;16.274;2023-11-22T00:15:40;34.28;;;24.02;;
36441;SDS011;73131;50.820;16.274;2023-11-22T00:18:06;34.47;;;24.73;;
36441;SDS011;73131;50.820;16.274;2023-11-22T00:20:34;33.28;;;24.52;;
36441;SDS011;73131;50.820;16.274;2023-11-22T00:23:00;35.88;;;24.30;;
36441;SDS011;73131;50.820;16.274;2023-11-22T00:25:29;35.33;;;25.45;;
36441;SDS011;73131;50.820;16.274;2023-11-22T00:27:58;36.38;;;25.92;;
36441;SDS011;73131;50.820;16.274;2023-11-22T00:30:24;35.28;;;25.60;;
36441;SDS011;73131;50.820;16.274;2023-11-22T00:32:52;37.70;;;26.02;;
36441;SDS011;73131;50.820;16.274;2023-11-22T00:35:19;32.00;;;24.25;;
36441;SDS011;73131;50.820;16.274;2023-11-22T00:37:52;33.58;;;24.15;;
36441;SDS011;73131;50.820;16.274;2023-11-22T00:40:20;33.05;;;22.58;;
36441;SDS011;73131;50.820;16.274;2023-11-22T00:42:48;35.83;;;24.20;;
36441;SDS011;73131;50.820;16.274;2023-11-22T00:45:15;35.38;;;24.40;;
36441;SDS011;73131;50.820;16.274;2023-11-22T00:47:40;46.15;;;29.65;;
36441;SDS011;73131;50.820;16.274;2023-11-22T00:50:08;34.72;;;22.98;;
36441;SDS011;73131;50.820;16.274;2023-11-22T00:52:38;36.90;;;23.45;;
36441;SDS011;73131;50.820;16.274;2023-11-22T00:57:36;34.38;;;22.00;;
36441;SDS011;73131;50.820;16.274;2023-11-22T01:00:03;31.58;;;21.33;;
36441;SDS011;73131;50.820;16.274;2023-11-22T01:02:36;31.38;;;20.90;;
36441;SDS011;73131;50.820;16.274;2023-11-22T01:05:08;30.98;;;21.25;;
36441;SDS011;73131;50.820;16.274;2023-11-22T01:07:40;32.75;;;23.08;;
36441;SDS011;73131;50.820;16.274;2023-11-22T01:10:06;32.10;;;22.63;;
36441;SDS011;73131;50.820;16.274;2023-11-22T01:12:35;31.60;;;22.27;;
36441;SDS011;73131;50.820;16.274;2023-11-22T01:15:01;32.97;;;21.58;;
36441;SDS011;73131;50.820;16.274;2023-11-22T01:17:29;31.65;;;22.17;;
36441;SDS011;73131;50.820;16.274;2023-11-22T01:19:56;34.33;;;22.70;;
36441;SDS011;73131;50.820;16.274;2023-11-22T01:22:27;33.97;;;23.20;;
36441;SDS011;73131;50.820;16.274;2023-11-22T01:24:53;34.35;;;24.73;;
36441;SDS011;73131;50.820;16.274;2023-11-22T01:27:19;34.50;;;24.27;;
36441;SDS011;73131;50.820;16.274;2023-11-22T01:29:45;37.85;;;26.55;;
36441;SDS011;73131;50.820;16.274;2023-11-22T01:32:12;39.47;;;28.70;;
36441;SDS011;73131;50.820;16.274;2023-11-22T01:34:38;39.85;;;29.10;;
36441;SDS011;73131;50.820;16.274;2023-11-22T01:37:08;40.88;;;28.60;;
36441;SDS011;73131;50.820;16.274;2023-11-22T01:39:34;39.40;;;28.25;;
36441;SDS011;73131;50.820;16.274;2023-11-22T01:42:00;41.97;;;29.80;;
36441;SDS011;73131;50.820;16.274;2023-11-22T01:44:31;42.35;;;27.85;;
36441;SDS011;73131;50.820;16.274;2023-11-22T01:46:59;40.45;;;29.75;;
36441;SDS011;73131;50.820;16.274;2023-11-22T01:49:29;41.15;;;29.50;;
36441;SDS011;73131;50.820;16.274;2023-11-22T01:51:55;42.00;;;29.95;;
36441;SDS011;73131;50.820;16.274;2023-11-22T01:54:23;44.40;;;32.17;;
36441;SDS011;73131;50.820;16.274;2023-11-22T01:56:50;45.08;;;31.05;;
36441;SDS011;73131;50.820;16.274;2023-11-22T01:59:16;43.33;;;30.33;;
36441;SDS011;73131;50.820;16.274;2023-11-22T02:01:43;44.63;;;31.10;;
36441;SDS011;73131;50.820;16.274;2023-11-22T02:04:12;45.95;;;32.03;;
36441;SDS011;73131;50.820;16.274;2023-11-22T02:06:38;49.95;;;32.92;;
36441;SDS011;73131;50.820;16.274;2023-11-22T02:09:04;50.70;;;34.65;;
36441;SDS011;73131;50.820;16.274;2023-11-22T02:11:30;50.53;;;34.30;;
36441;SDS011;73131;50.820;16.274;2023-11-22T02:13:58;48.22;;;34.30;;
36441;SDS011;73131;50.820;16.274;2023-11-22T02:16:24;52.83;;;35.88;;
36441;SDS011;73131;50.820;16.274;2023-11-22T02:18:50;49.70;;;33.47;;
36441;SDS011;73131;50.820;16.274;2023-11-22T02:21:19;48.80;;;34.58;;
36441;SDS011;73131;50.820;16.274;2023-11-22T02:23:47;49.97;;;34.83;;
36441;SDS011;73131;50.820;16.274;2023-11-22T02:26:16;47.50;;;32.67;;
36441;SDS011;73131;50.820;16.274;2023-11-22T02:28:43;50.38;;;33.40;;
36441;SDS011;73131;50.820;16.274;2023-11-22T02:31:12;50.17;;;34.72;;
36441;SDS011;73131;50.820;16.274;2023-11-22T02:33:41;46.72;;;31.90;;
36441;SDS011;73131;50.820;16.274;2023-11-22T02:36:07;46.33;;;32.08;;
36441;SDS011;73131;50.820;16.274;2023-11-22T02:38:38;47.97;;;32.08;;
36441;SDS011;73131;50.820;16.274;2023-11-22T02:41:05;47.25;;;32.80;;
36441;SDS011;73131;50.820;16.274;2023-11-22T02:43:31;48.03;;;33.70;;
36441;SDS011;73131;50.820;16.274;2023-11-22T02:45:57;48.38;;;32.33;;
36441;SDS011;73131;50.820;16.274;2023-11-22T02:48:23;46.45;;;32.47;;
36441;SDS011;73131;50.820;16.274;2023-11-22T02:50:49;48.40;;;32.30;;
36441;SDS011;73131;50.820;16.274;2023-11-22T02:53:15;47.72;;;32.35;;
36441;SDS011;73131;50.820;16.274;2023-11-22T02:55:43;46.55;;;31.75;;
36441;SDS011;73131;50.820;16.274;2023-11-22T02:58:10;48.13;;;33.55;;
36441;SDS011;73131;50.820;16.274;2023-11-22T03:00:42;49.28;;;32.63;;
36441;SDS011;73131;50.820;16.274;2023-11-22T03:03:11;48.60;;;34.10;;
36441;SDS011;73131;50.820;16.274;2023-11-22T03:05:40;47.70;;;32.78;;
36441;SDS011;73131;50.820;16.274;2023-11-22T03:08:11;48.38;;;32.28;;
36441;SDS011;73131;50.820;16.274;2023-11-22T03:10:38;48.60;;;33.75;;
36441;SDS011;73131;50.820;16.274;2023-11-22T03:13:07;47.10;;;33.13;;
36441;SDS011;73131;50.820;16.274;2023-11-22T03:15:34;50.22;;;33.25;;
36441;SDS011;73131;50.820;16.274;2023-11-22T03:18:02;48.65;;;32.15;;
36441;SDS011;73131;50.820;16.274;2023-11-22T03:20:30;49.67;;;35.22;;
36441;SDS011;73131;50.820;16.274;2023-11-22T03:22:58;50.45;;;33.80;;
36441;SDS011;73131;50.820;16.274;2023-11-22T03:25:25;50.53;;;32.30;;
36441;SDS011;73131;50.820;16.274;2023-11-22T03:27:54;48.35;;;32.45;;
36441;SDS011;73131;50.820;16.274;2023-11-22T03:30:22;50.38;;;34.35;;
36441;SDS011;73131;50.820;16.274;2023-11-22T03:32:48;51.63;;;33.72;;
36441;SDS011;73131;50.820;16.274;2023-11-22T03:35:15;49.13;;;32.85;;
36441;SDS011;73131;50.820;16.274;2023-11-22T03:37:43;50.85;;;34.80;;
36441;SDS011;73131;50.820;16.274;2023-11-22T03:40:11;55.85;;;34.13;;
36441;SDS011;73131;50.820;16.274;2023-11-22T03:42:39;49.10;;;32.97;;
36441;SDS011;73131;50.820;16.274;2023-11-22T03:45:08;51.78;;;33.25;;
36441;SDS011;73131;50.820;16.274;2023-11-22T03:47:35;50.92;;;33.28;;
36441;SDS011;73131;50.820;16.274;2023-11-22T03:50:06;50.67;;;33.58;;
36441;SDS011;73131;50.820;16.274;2023-11-22T03:52:35;50.38;;;33.63;;
36441;SDS011;73131;50.820;16.274;2023-11-22T03:55:03;52.25;;;33.15;;
36441;SDS011;73131;50.820;16.274;2023-11-22T03:57:32;47.38;;;31.73;;
36441;SDS011;73131;50.820;16.274;2023-11-22T03:59:58;48.88;;;31.27;;
36441;SDS011;73131;50.820;16.274;2023-11-22T04:02:29;48.78;;;32.22;;
36441;SDS011;73131;50.820;16.274;2023-11-22T04:04:57;51.08;;;33.28;;
36441;SDS011;73131;50.820;16.274;2023-11-22T04:07:26;48.42;;;33.30;;
36441;SDS011;73131;50.820;16.274;2023-11-22T04:09:55;49.13;;;32.90;;
36441;SDS011;73131;50.820;16.274;2023-11-22T04:12:21;48.97;;;31.58;;
36441;SDS011;73131;50.820;16.274;2023-11-22T04:14:47;49.55;;;33.05;;
36441;SDS011;73131;50.820;16.274;2023-11-22T04:17:14;53.15;;;34.17;;
36441;SDS011;73131;50.820;16.274;2023-11-22T04:19:48;50.00;;;33.75;;
36441;SDS011;73131;50.820;16.274;2023-11-22T04:22:14;49.90;;;32.00;;
36441;SDS011;73131;50.820;16.274;2023-11-22T04:24:40;49.83;;;32.65;;
36441;SDS011;73131;50.820;16.274;2023-11-22T04:27:07;50.40;;;32.88;;
36441;SDS011;73131;50.820;16.274;2023-11-22T04:29:32;51.05;;;32.03;;
36441;SDS011;73131;50.820;16.274;2023-11-22T04:31:59;52.20;;;33.33;;
36441;SDS011;73131;50.820;16.274;2023-11-22T04:34:27;51.55;;;33.15;;
36441;SDS011;73131;50.820;16.274;2023-11-22T04:36:54;50.35;;;32.30;;
36441;SDS011;73131;50.820;16.274;2023-11-22T04:39:19;49.40;;;32.72;;
36441;SDS011;73131;50.820;16.274;2023-11-22T04:41:46;48.35;;;32.53;;
36441;SDS011;73131;50.820;16.274;2023-11-22T04:44:12;51.85;;;32.72;;
36441;SDS011;73131;50.820;16.274;2023-11-22T04:46:38;46.75;;;32.05;;
36441;SDS011;73131;50.820;16.274;2023-11-22T04:49:04;52.10;;;33.80;;
36441;SDS011;73131;50.820;16.274;2023-11-22T04:51:30;52.50;;;34.15;;
36441;SDS011;73131;50.820;16.274;2023-11-22T04:53:57;51.55;;;34.17;;
36441;SDS011;73131;50.820;16.274;2023-11-22T04:56:24;51.65;;;35.67;;
36441;SDS011;73131;50.820;16.274;2023-11-22T04:58:52;48.97;;;32.28;;
36441;SDS011;73131;50.820;16.274;2023-11-22T05:01:18;52.72;;;33.63;;
36441;SDS011;73131;50.820;16.274;2023-11-22T05:03:46;50.05;;;34.75;;
36441;SDS011;73131;50.820;16.274;2023-11-22T05:06:15;57.40;;;36.60;;
36441;SDS011;73131;50.820;16.274;2023-11-22T05:08:42;55.63;;;36.35;;
36441;SDS011;73131;50.820;16.274;2023-11-22T05:11:08;57.28;;;36.10;;
36441;SDS011;73131;50.820;16.274;2023-11-22T05:13:35;59.30;;;37.35;;
36441;SDS011;73131;50.820;16.274;2023-11-22T05:16:03;63.88;;;38.95;;
36441;SDS011;73131;50.820;16.274;2023-11-22T05:18:32;62.92;;;39.63;;
36441;SDS011;73131;50.820;16.274;2023-11-22T05:20:58;60.47;;;37.70;;
36441;SDS011;73131;50.820;16.274;2023-11-22T05:23:24;60.80;;;39.05;;
36441;SDS011;73131;50.820;16.274;2023-11-22T05:25:52;62.58;;;38.10;;
36441;SDS011;73131;50.820;16.274;2023-11-22T05:28:18;59.13;;;39.30;;
36441;SDS011;73131;50.820;16.274;2023-11-22T05:30:44;61.75;;;38.75;;
36441;SDS011;73131;50.820;16.274;2023-11-22T05:33:11;66.38;;;39.92;;
36441;SDS011;73131;50.820;16.274;2023-11-22T05:35:37;63.70;;;40.03;;
36441;SDS011;73131;50.820;16.274;2023-11-22T05:38:03;61.03;;;39.60;;
36441;SDS011;73131;50.820;16.274;2023-11-22T05:40:31;67.13;;;40.58;;
36441;SDS011;73131;50.820;16.274;2023-11-22T05:43:00;63.13;;;40.90;;
36441;SDS011;73131;50.820;16.274;2023-11-22T05:45:26;63.42;;;39.72;;
36441;SDS011;73131;50.820;16.274;2023-11-22T05:47:56;59.10;;;38.08;;
36441;SDS011;73131;50.820;16.274;2023-11-22T05:50:22;61.40;;;38.65;;
36441;SDS011;73131;50.820;16.274;2023-11-22T05:52:48;59.78;;;37.83;;
36441;SDS011;73131;50.820;16.274;2023-11-22T05:55:17;58.97;;;37.08;;
36441;SDS011;73131;50.820;16.274;2023-11-22T05:57:43;60.83;;;39.08;;
36441;SDS011;73131;50.820;16.274;2023-11-22T06:00:10;60.78;;;37.92;;
36441;SDS011;73131;50.820;16.274;2023-11-22T06:02:36;61.95;;;38.88;;
36441;SDS011;73131;50.820;16.274;2023-11-22T06:05:04;64.97;;;40.08;;
36441;SDS011;73131;50.820;16.274;2023-11-22T06:07:34;64.32;;;40.45;;
36441;SDS011;73131;50.820;16.274;2023-11-22T06:10:00;61.22;;;37.38;;
36441;SDS011;73131;50.820;16.274;2023-11-22T06:12:28;57.42;;;37.33;;
36441;SDS011;73131;50.820;16.274;2023-11-22T06:14:56;61.72;;;38.92;;
36441;SDS011;73131;50.820;16.274;2023-11-22T06:17:22;54.97;;;36.35;;
36441;SDS011;73131;50.820;16.274;2023-11-22T06:19:48;56.40;;;34.60;;
36441;SDS011;73131;50.820;16.274;2023-11-22T06:22:14;53.22;;;35.40;;
36441;SDS011;73131;50.820;16.274;2023-11-22T06:24:42;46.05;;;31.90;;
36441;SDS011;73131;50.820;16.274;2023-11-22T06:27:13;46.75;;;31.45;;
36441;SDS011;73131;50.820;16.274;2023-11-22T06:29:41;44.33;;;30.00;;
36441;SDS011;73131;50.820;16.274;2023-11-22T06:32:09;40.63;;;28.13;;
36441;SDS011;73131;50.820;16.274;2023-11-22T06:34:38;41.05;;;26.92;;
36441;SDS011;73131;50.820;16.274;2023-11-22T06:37:09;37.72;;;24.98;;
36441;SDS011;73131;50.820;16.274;2023-11-22T06:39:41;35.92;;;23.52;;
36441;SDS011;73131;50.820;16.274;2023-11-22T06:42:07;36.05;;;24.02;;
36441;SDS011;73131;50.820;16.274;2023-11-22T06:44:34;34.65;;;21.70;;
36441;SDS011;73131;50.820;16.274;2023-11-22T06:47:00;37.65;;;24.25;;
36441;SDS011;73131;50.820;16.274;2023-11-22T06:49:27;32.63;;;21.58;;
36441;SDS011;73131;50.820;16.274;2023-11-22T06:51:53;30.67;;;21.48;;
36441;SDS011;73131;50.820;16.274;2023-11-22T06:54:19;33.33;;;21.75;;
36441;SDS011;73131;50.820;16.274;2023-11-22T06:56:48;31.08;;;20.13;;
36441;SDS011;73131;50.820;16.274;2023-11-22T06:59:15;33.92;;;22.23;;
36441;SDS011;73131;50.820;16.274;2023-11-22T07:01:44;35.25;;;22.35;;
36441;SDS011;73131;50.820;16.274;2023-11-22T07:04:11;32.50;;;20.48;;
36441;SDS011;73131;50.820;16.274;2023-11-22T07:06:39;30.58;;;20.02;;
36441;SDS011;73131;50.820;16.274;2023-11-22T07:09:06;31.25;;;21.33;;
36441;SDS011;73131;50.820;16.274;2023-11-22T07:11:35;34.47;;;22.10;;
36441;SDS011;73131;50.820;16.274;2023-11-22T07:14:04;32.53;;;22.13;;
36441;SDS011;73131;50.820;16.274;2023-11-22T07:16:31;30.90;;;20.15;;
36441;SDS011;73131;50.820;16.274;2023-11-22T07:19:08;31.42;;;20.77;;
36441;SDS011;73131;50.820;16.274;2023-11-22T07:21:35;33.80;;;20.77;;
36441;SDS011;73131;50.820;16.274;2023-11-22T07:24:06;33.28;;;20.30;;
36441;SDS011;73131;50.820;16.274;2023-11-22T07:26:34;34.78;;;20.45;;
36441;SDS011;73131;50.820;16.274;2023-11-22T07:29:00;31.27;;;20.42;;
36441;SDS011;73131;50.820;16.274;2023-11-22T07:31:29;32.45;;;20.27;;
36441;SDS011;73131;50.820;16.274;2023-11-22T07:33:58;32.60;;;19.75;;
36441;SDS011;73131;50.820;16.274;2023-11-22T07:36:27;33.88;;;20.05;;
36441;SDS011;73131;50.820;16.274;2023-11-22T07:38:56;37.03;;;21.95;;
36441;SDS011;73131;50.820;16.274;2023-11-22T07:41:22;32.72;;;19.67;;
36441;SDS011;73131;50.820;16.274;2023-11-22T07:43:51;32.63;;;20.65;;
36441;SDS011;73131;50.820;16.274;2023-11-22T07:46:21;30.23;;;19.27;;
36441;SDS011;73131;50.820;16.274;2023-11-22T07:48:51;30.15;;;19.58;;
36441;SDS011;73131;50.820;16.274;2023-11-22T07:51:16;31.00;;;19.58;;
36441;SDS011;73131;50.820;16.274;2023-11-22T07:53:43;35.08;;;20.15;;
36441;SDS011;73131;50.820;16.274;2023-11-22T07:56:14;33.60;;;20.27;;
36441;SDS011;73131;50.820;16.274;2023-11-22T07:58:42;48.25;;;30.95;;
36441;SDS011;73131;50.820;16.274;2023-11-22T08:01:08;36.50;;;21.15;;
36441;SDS011;73131;50.820;16.274;2023-11-22T08:03:39;34.78;;;21.30;;
36441;SDS011;73131;50.820;16.274;2023-11-22T08:06:11;33.60;;;20.67;;
36441;SDS011;73131;50.820;16.274;2023-11-22T08:08:37;33.30;;;20.83;;
36441;SDS011;73131;50.820;16.274;2023-11-22T08:11:05;34.05;;;21.50;;
36441;SDS011;73131;50.820;16.274;2023-11-22T08:13:41;34.50;;;20.48;;
36441;SDS011;73131;50.820;16.274;2023-11-22T08:16:08;35.10;;;20.17;;
36441;SDS011;73131;50.820;16.274;2023-11-22T08:18:38;35.20;;;21.13;;
36441;SDS011;73131;50.820;16.274;2023-11-22T08:21:08;36.03;;;21.80;;
36441;SDS011;73131;50.820;16.274;2023-11-22T08:23:34;33.03;;;21.52;;
36441;SDS011;73131;50.820;16.274;2023-11-22T08:26:00;33.72;;;21.98;;
36441;SDS011;73131;50.820;16.274;2023-11-22T08:28:31;36.35;;;22.30;;
36441;SDS011;73131;50.820;16.274;2023-11-22T08:30:57;34.90;;;21.92;;
36441;SDS011;73131;50.820;16.274;2023-11-22T08:33:23;35.85;;;22.17;;
36441;SDS011;73131;50.820;16.274;2023-11-22T08:35:49;35.20;;;22.45;;
36441;SDS011;73131;50.820;16.274;2023-11-22T08:38:24;38.17;;;24.05;;
36441;SDS011;73131;50.820;16.274;2023-11-22T08:40:52;37.28;;;23.77;;
36441;SDS011;73131;50.820;16.274;2023-11-22T08:43:19;36.67;;;24.00;;
36441;SDS011;73131;50.820;16.274;2023-11-22T08:45:48;38.00;;;24.67;;
36441;SDS011;73131;50.820;16.274;2023-11-22T08:48:20;40.95;;;26.20;;
36441;SDS011;73131;50.820;16.274;2023-11-22T08:50:46;43.72;;;26.70;;
36441;SDS011;73131;50.820;16.274;2023-11-22T08:53:13;42.50;;;26.95;;
36441;SDS011;73131;50.820;16.274;2023-11-22T08:55:43;46.05;;;29.00;;
36441;SDS011;73131;50.820;16.274;2023-11-22T08:58:12;45.17;;;27.92;;
36441;SDS011;73131;50.820;16.274;2023-11-22T09:00:39;42.67;;;28.27;;
36441;SDS011;73131;50.820;16.274;2023-11-22T09:03:07;46.35;;;28.05;;
36441;SDS011;73131;50.820;16.274;2023-11-22T09:05:36;43.53;;;27.67;;
36441;SDS011;73131;50.820;16.274;2023-11-22T09:08:05;48.63;;;30.05;;
36441;SDS011;73131;50.820;16.274;2023-11-22T09:10:31;44.40;;;28.90;;
36441;SDS011;73131;50.820;16.274;2023-11-22T09:13:02;50.20;;;30.35;;
36441;SDS011;73131;50.820;16.274;2023-11-22T09:15:32;47.53;;;29.98;;
36441;SDS011;73131;50.820;16.274;2023-11-22T09:18:03;51.15;;;33.30;;
36441;SDS011;73131;50.820;16.274;2023-11-22T09:20:29;49.83;;;32.72;;
36441;SDS011;73131;50.820;16.274;2023-11-22T09:22:55;53.03;;;33.78;;
36441;SDS011;73131;50.820;16.274;2023-11-22T09:25:21;54.50;;;34.75;;
36441;SDS011;73131;50.820;16.274;2023-11-22T09:27:56;53.30;;;34.67;;
36441;SDS011;73131;50.820;16.274;2023-11-22T09:30:30;52.25;;;34.35;;
36441;SDS011;73131;50.820;16.274;2023-11-22T09:33:11;48.17;;;32.33;;
36441;SDS011;73131;50.820;16.274;2023-11-22T09:35:42;50.88;;;33.25;;
36441;SDS011;73131;50.820;16.274;2023-11-22T09:38:10;51.90;;;33.35;;
36441;SDS011;73131;50.820;16.274;2023-11-22T09:40:43;50.95;;;32.72;;
36441;SDS011;73131;50.820;16.274;2023-11-22T09:43:12;48.42;;;32.35;;
36441;SDS011;73131;50.820;16.274;2023-11-22T09:45:51;50.88;;;32.40;;
36441;SDS011;73131;50.820;16.274;2023-11-22T09:48:23;45.72;;;30.55;;
36441;SDS011;73131;50.820;16.274;2023-11-22T09:53:40;63.70;;;42.70;;
36441;SDS011;73131;50.820;16.274;2023-11-22T09:56:16;48.15;;;30.98;;
36441;SDS011;73131;50.820;16.274;2023-11-22T09:58:44;48.20;;;32.03;;
36441;SDS011;73131;50.820;16.274;2023-11-22T10:01:13;44.95;;;31.00;;
36441;SDS011;73131;50.820;16.274;2023-11-22T10:03:42;45.72;;;29.33;;
36441;SDS011;73131;50.820;16.274;2023-11-22T10:06:16;46.83;;;28.75;;
36441;SDS011;73131;50.820;16.274;2023-11-22T10:08:43;45.90;;;29.08;;
36441;SDS011;73131;50.820;16.274;2023-11-22T10:11:15;41.75;;;27.70;;
36441;SDS011;73131;50.820;16.274;2023-11-22T10:13:47;42.10;;;26.70;;
36441;SDS011;73131;50.820;16.274;2023-11-22T10:16:14;42.03;;;27.15;;
36441;SDS011;73131;50.820;16.274;2023-11-22T10:18:48;46.30;;;29.00;;
36441;SDS011;73131;50.820;16.274;2023-11-22T10:23:53;40.67;;;26.97;;
36441;SDS011;73131;50.820;16.274;2023-11-22T10:26:21;42.28;;;27.17;;
36441;SDS011;73131;50.820;16.274;2023-11-22T10:28:55;39.90;;;26.45;;
36441;SDS011;73131;50.820;16.274;2023-11-22T10:31:27;47.25;;;30.45;;
36441;SDS011;73131;50.820;16.274;2023-11-22T10:33:56;40.70;;;26.88;;
36441;SDS011;73131;50.820;16.274;2023-11-22T10:36:23;49.80;;;32.00;;
36441;SDS011;73131;50.820;16.274;2023-11-22T10:38:49;41.92;;;27.92;;
36441;SDS011;73131;50.820;16.274;2023-11-22T10:41:19;42.65;;;28.38;;
36441;SDS011;73131;50.820;16.274;2023-11-22T10:43:46;43.83;;;29.15;;
36441;SDS011;73131;50.820;16.274;2023-11-22T10:46:16;42.60;;;27.73;;
36441;SDS011;73131;50.820;16.274;2023-11-22T10:48:45;40.75;;;26.13;;
36441;SDS011;73131;50.820;16.274;2023-11-22T10:51:12;39.35;;;25.55;;
36441;SDS011;73131;50.820;16.274;2023-11-22T10:56:14;38.50;;;23.95;;
36441;SDS011;73131;50.820;16.274;2023-11-22T10:58:50;39.80;;;25.38;;
36441;SDS011;73131;50.820;16.274;2023-11-22T11:01:18;38.67;;;25.73;;
36441;SDS011;73131;50.820;16.274;2023-11-22T11:03:59;39.58;;;25.13;;
36441;SDS011;73131;50.820;16.274;2023-11-22T11:06:32;37.90;;;25.60;;
36441;SDS011;73131;50.820;16.274;2023-11-22T11:09:04;38.92;;;25.80;;
36441;SDS011;73131;50.820;16.274;2023-11-22T11:11:34;35.95;;;24.80;;
36441;SDS011;73131;50.820;16.274;2023-11-22T11:14:04;35.25;;;23.67;;
36441;SDS011;73131;50.820;16.274;2023-11-22T11:16:38;35.92;;;24.30;;
36441;SDS011;73131;50.820;16.274;2023-11-22T11:19:07;39.22;;;24.70;;
36441;SDS011;73131;50.820;16.274;2023-11-22T11:21:35;37.35;;;24.77;;
36441;SDS011;73131;50.820;16.274;2023-11-22T11:24:04;35.83;;;25.20;;
36441;SDS011;73131;50.820;16.274;2023-11-22T11:26:32;36.92;;;24.83;;
36441;SDS011;73131;50.820;16.274;2023-11-22T11:29:04;36.22;;;22.90;;
36441;SDS011;73131;50.820;16.274;2023-11-22T11:31:38;33.28;;;23.15;;
36441;SDS011;73131;50.820;16.274;2023-11-22T11:34:08;34.38;;;23.65;;
36441;SDS011;73131;50.820;16.274;2023-11-22T11:36:36;34.35;;;24.60;;
36441;SDS011;73131;50.820;16.274;2023-11-22T11:39:07;37.45;;;25.05;;
36441;SDS011;73131;50.820;16.274;2023-11-22T11:41:40;40.38;;;28.95;;
36441;SDS011;73131;50.820;16.274;2023-11-22T11:44:09;45.92;;;30.58;;
36441;SDS011;73131;50.820;16.274;2023-11-22T11:46:39;39.38;;;25.30;;
36441;SDS011;73131;50.820;16.274;2023-11-22T11:49:09;34.03;;;23.33;;
36441;SDS011;73131;50.820;16.274;2023-11-22T11:51:41;33.50;;;22.27;;
36441;SDS011;73131;50.820;16.274;2023-11-22T11:54:12;32.75;;;22.33;;
36441;SDS011;73131;50.820;16.274;2023-11-22T11:56:38;30.58;;;20.67;;
36441;SDS011;73131;50.820;16.274;2023-11-22T11:59:09;44.55;;;29.73;;
36441;SDS011;73131;50.820;16.274;2023-11-22T12:01:40;26.38;;;17.45;;
36441;SDS011;73131;50.820;16.274;2023-11-22T12:04:07;30.90;;;20.92;;
36441;SDS011;73131;50.820;16.274;2023-11-22T12:06:33;28.85;;;20.98;;
36441;SDS011;73131;50.820;16.274;2023-11-22T12:09:02;29.75;;;20.85;;
36441;SDS011;73131;50.820;16.274;2023-11-22T12:11:29;30.73;;;21.17;;
36441;SDS011;73131;50.820;16.274;2023-11-22T12:13:55;32.95;;;22.17;;
36441;SDS011;73131;50.820;16.274;2023-11-22T12:16:24;35.45;;;23.33;;
36441;SDS011;73131;50.820;16.274;2023-11-22T12:18:50;32.90;;;22.73;;
36441;SDS011;73131;50.820;16.274;2023-11-22T12:21:18;29.67;;;21.60;;
36441;SDS011;73131;50.820;16.274;2023-11-22T12:23:45;32.47;;;22.17;;
36441;SDS011;73131;50.820;16.274;2023-11-22T12:26:13;27.90;;;19.02;;
36441;SDS011;73131;50.820;16.274;2023-11-22T12:28:46;26.77;;;19.17;;
36441;SDS011;73131;50.820;16.274;2023-11-22T12:31:14;27.13;;;19.48;;
36441;SDS011;73131;50.820;16.274;2023-11-22T12:33:41;28.77;;;18.73;;
36441;SDS011;73131;50.820;16.274;2023-11-22T12:36:09;30.30;;;19.52;;
36441;SDS011;73131;50.820;16.274;2023-11-22T12:38:36;28.90;;;18.88;;
36441;SDS011;73131;50.820;16.274;2023-11-22T12:41:02;30.45;;;20.60;;
36441;SDS011;73131;50.820;16.274;2023-11-22T12:43:32;27.90;;;19.42;;
36441;SDS011;73131;50.820;16.274;2023-11-22T12:45:59;28.02;;;18.70;;
36441;SDS011;73131;50.820;16.274;2023-11-22T12:48:28;28.88;;;19.67;;
36441;SDS011;73131;50.820;16.274;2023-11-22T12:50:55;27.30;;;18.95;;
36441;SDS011;73131;50.820;16.274;2023-11-22T12:53:25;25.40;;;17.95;;
36441;SDS011;73131;50.820;16.274;2023-11-22T12:56:03;27.17;;;18.27;;
36441;SDS011;73131;50.820;16.274;2023-11-22T12:58:32;27.10;;;17.73;;
36441;SDS011;73131;50.820;16.274;2023-11-22T13:00:58;27.73;;;18.63;;
36441;SDS011;73131;50.820;16.274;2023-11-22T13:03:28;26.73;;;17.88;;
36441;SDS011;73131;50.820;16.274;2023-11-22T13:05:55;26.42;;;17.83;;
36441;SDS011;73131;50.820;16.274;2023-11-22T13:08:28;25.80;;;17.75;;
36441;SDS011;73131;50.820;16.274;2023-11-22T13:10:56;25.65;;;17.77;;
36441;SDS011;73131;50.820;16.274;2023-11-22T13:13:24;23.58;;;15.80;;
36441;SDS011;73131;50.820;16.274;2023-11-22T13:15:54;25.42;;;16.25;;
36441;SDS011;73131;50.820;16.274;2023-11-22T13:18:25;27.42;;;18.17;;
36441;SDS011;73131;50.820;16.274;2023-11-22T13:20:51;23.98;;;15.13;;
36441;SDS011;73131;50.820;16.274;2023-11-22T13:23:20;23.88;;;16.35;;
36441;SDS011;73131;50.820;16.274;2023-11-22T13:25:50;24.38;;;16.15;;
36441;SDS011;73131;50.820;16.274;2023-11-22T13:28:16;23.63;;;14.48;;
36441;SDS011;73131;50.820;16.274;2023-11-22T13:30:45;22.92;;;14.85;;
36441;SDS011;73131;50.820;16.274;2023-11-22T13:33:16;21.58;;;15.15;;
36441;SDS011;73131;50.820;16.274;2023-11-22T13:35:42;21.23;;;14.32;;
36441;SDS011;73131;50.820;16.274;2023-11-22T13:38:15;36.72;;;23.38;;
36441;SDS011;73131;50.820;16.274;2023-11-22T13:40:41;27.50;;;17.20;;
36441;SDS011;73131;50.820;16.274;2023-11-22T13:43:11;23.63;;;15.45;;
36441;SDS011;73131;50.820;16.274;2023-11-22T13:45:38;25.40;;;16.15;;
36441;SDS011;73131;50.820;16.274;2023-11-22T13:48:07;25.35;;;16.83;;
36441;SDS011;73131;50.820;16.274;2023-11-22T13:50:36;27.52;;;17.90;;
36441;SDS011;73131;50.820;16.274;2023-11-22T13:53:03;28.08;;;16.33;;
36441;SDS011;73131;50.820;16.274;2023-11-22T13:55:30;27.63;;;17.00;;
36441;SDS011;73131;50.820;16.274;2023-11-22T13:57:57;27.52;;;18.50;;
36441;SDS011;73131;50.820;16.274;2023-11-22T14:00:26;27.17;;;18.33;;
36441;SDS011;73131;50.820;16.274;2023-11-22T14:02:57;28.27;;;17.33;;
36441;SDS011;73131;50.820;16.274;2023-11-22T14:05:32;27.55;;;18.95;;
36441;SDS011;73131;50.820;16.274;2023-11-22T14:08:04;26.35;;;17.83;;
36441;SDS011;73131;50.820;16.274;2023-11-22T14:10:34;28.77;;;18.40;;
36441;SDS011;73131;50.820;16.274;2023-11-22T14:13:03;29.80;;;19.35;;
36441;SDS011;73131;50.820;16.274;2023-11-22T14:15:33;25.65;;;19.67;;
36441;SDS011;73131;50.820;16.274;2023-11-22T14:18:01;26.48;;;19.17;;
36441;SDS011;73131;50.820;16.274;2023-11-22T14:20:27;27.90;;;19.27;;
36441;SDS011;73131;50.820;16.274;2023-11-22T14:22:55;26.95;;;18.35;;
36441;SDS011;73131;50.820;16.274;2023-11-22T14:25:23;44.88;;;30.00;;